Time;durP1;ratioP1;P1;durP2;ratioP2;P2;SDS_P1;SDS_P2;PMS_P1;PMS_P2;Temp;Humidity;BMP_temperature;BMP_pressure;BME280_temperature;BME280_humidity;BME280_pressure;Samples;Min_cycle;Max_cycle;Signal;HPM_P1;HPM_P2
2022/04/25 00:00:50;;;;;;;11.20;4.05;;;;;;;;;;4970938;28;20351;-64
2022/04/25 00:03:16;;;;;;;8.10;4.13;;;;;;;;;;4970960;28;20428;-63
2022/04/25 00:05:41;;;;;;;11.00;4.22;;;;;;;;;;4971356;28;20030;-64
2022/04/25 00:08:06;;;;;;;9.77;3.97;;;;;;;;;;4971071;28;20464;-63
2022/04/25 00:10:32;;;;;;;7.70;3.88;;;;;;;;;;4971322;28;20099;-64
2022/04/25 00:12:58;;;;;;;9.93;4.43;;;;;;;;;;4970542;28;20060;-63
2022/04/25 00:15:23;;;;;;;7.13;4.13;;;;;;;;;;4971141;28;20069;-63
2022/04/25 00:17:48;;;;;;;10.48;4.25;;;;;;;;;;4970993;28;20437;-63
2022/04/25 00:20:14;;;;;;;7.57;3.65;;;;;;;;;;4970796;28;20599;-62
2022/04/25 00:22:39;;;;;;;7.35;3.95;;;;;;;;;;4970707;28;20445;-63
2022/04/25 00:25:05;;;;;;;8.55;4.65;;;;;;;;;;4971108;28;20496;-63
2022/04/25 00:27:31;;;;;;;9.57;4.15;;;;;;;;;;4970469;28;20526;-62
2022/04/25 00:29:56;;;;;;;8.95;4.28;;;;;;;;;;4970980;28;20310;-63
2022/04/25 00:32:23;;;;;;;6.45;4.13;;;;;;;;;;4970590;28;20483;-63
2022/04/25 00:34:48;;;;;;;8.55;4.22;;;;;;;;;;4970893;28;20532;-63
2022/04/25 00:37:13;;;;;;;8.18;4.35;;;;;;;;;;4970455;28;20478;-64
2022/04/25 00:39:39;;;;;;;7.65;3.53;;;;;;;;;;4971034;28;20463;-63
2022/04/25 00:42:04;;;;;;;7.68;4.07;;;;;;;;;;4971259;28;20361;-62
2022/04/25 00:44:30;;;;;;;7.03;3.47;;;;;;;;;;4972076;28;20301;-63
2022/04/25 00:46:56;;;;;;;7.68;3.85;;;;;;;;;;4970963;28;20430;-63
2022/04/25 00:49:23;;;;;;;9.73;4.40;;;;;;;;;;4953617;28;20333;-63
2022/04/25 00:51:51;;;;;;;7.47;3.85;;;;;;;;;;4970802;28;20433;-63
2022/04/25 00:54:17;;;;;;;8.13;3.50;;;;;;;;;;4970208;28;20453;-63
2022/04/25 00:56:43;;;;;;;7.95;3.90;;;;;;;;;;4970514;28;20487;-63
2022/04/25 00:59:09;;;;;;;7.07;3.70;;;;;;;;;;4952540;28;20419;-62
2022/04/25 01:01:34;;;;;;;8.02;4.05;;;;;;;;;;4939478;28;20400;-63
2022/04/25 01:04:00;;;;;;;6.70;3.47;;;;;;;;;;4970142;28;20432;-63
2022/04/25 01:06:25;;;;;;;9.60;4.20;;;;;;;;;;4969388;28;20367;-63
2022/04/25 01:08:51;;;;;;;9.52;3.80;;;;;;;;;;4969692;28;20069;-63
2022/04/25 01:11:16;;;;;;;7.72;4.07;;;;;;;;;;4969795;28;20492;-63
2022/04/25 01:13:43;;;;;;;7.60;3.70;;;;;;;;;;4969380;28;20041;-62
2022/04/25 01:16:08;;;;;;;5.95;3.40;;;;;;;;;;4969892;28;20160;-64
2022/04/25 01:18:34;;;;;;;5.13;3.20;;;;;;;;;;4969646;28;20076;-63
2022/04/25 01:21:00;;;;;;;8.23;4.03;;;;;;;;;;4969608;28;20376;-63
2022/04/25 01:28:54;;;;;;;9.73;4.00;;;;;;;;;;4971304;28;20509;-64
2022/04/25 01:31:20;;;;;;;6.20;3.35;;;;;;;;;;4969704;28;20448;-64
2022/04/25 01:33:46;;;;;;;6.45;3.38;;;;;;;;;;4970212;28;20483;-64
2022/04/25 01:36:14;;;;;;;8.43;3.67;;;;;;;;;;4969411;28;20401;-63
2022/04/25 01:38:40;;;;;;;7.55;3.67;;;;;;;;;;4969387;28;20345;-64
2022/04/25 01:41:06;;;;;;;7.25;3.67;;;;;;;;;;4969234;28;20045;-63
2022/04/25 01:43:40;;;;;;;8.55;3.97;;;;;;;;;;4969722;28;20350;-62
2022/04/25 01:46:05;;;;;;;5.88;3.60;;;;;;;;;;4969461;28;20095;-63
2022/04/25 01:48:31;;;;;;;7.18;4.45;;;;;;;;;;4971131;28;20033;-64
2022/04/25 01:50:56;;;;;;;7.63;3.60;;;;;;;;;;4969445;28;20315;-63
2022/04/25 01:53:22;;;;;;;6.78;3.60;;;;;;;;;;4969830;28;20507;-63
2022/04/25 01:55:47;;;;;;;6.50;3.22;;;;;;;;;;4969905;28;20439;-63
2022/04/25 01:58:13;;;;;;;6.75;3.90;;;;;;;;;;4969216;28;20457;-62
2022/04/25 02:00:39;;;;;;;6.53;3.55;;;;;;;;;;4969473;28;20427;-63
2022/04/25 02:03:05;;;;;;;6.78;3.10;;;;;;;;;;4969420;28;20514;-62
2022/04/25 02:05:30;;;;;;;6.90;3.30;;;;;;;;;;4969290;28;20346;-62
2022/04/25 02:07:56;;;;;;;6.43;3.38;;;;;;;;;;4968662;28;20073;-64
2022/04/25 02:10:21;;;;;;;8.20;4.07;;;;;;;;;;4968827;28;20340;-63
2022/04/25 02:12:46;;;;;;;7.25;3.90;;;;;;;;;;4951136;28;20469;-63
2022/04/25 02:15:13;;;;;;;5.95;3.50;;;;;;;;;;4968989;28;20512;-62
2022/04/25 02:17:39;;;;;;;9.13;3.85;;;;;;;;;;4970979;28;20328;-63
2022/04/25 02:20:05;;;;;;;5.38;3.28;;;;;;;;;;4974824;28;20436;-62
2022/04/25 02:22:34;;;;;;;9.32;4.35;;;;;;;;;;4973153;28;20436;-64
2022/04/25 02:24:59;;;;;;;;;;;;;;;;;;4956645;28;20552;-63
2022/04/25 02:27:25;;;;;;;7.03;4.03;;;;;;;;;;4973065;28;20286;-63
2022/04/25 02:29:53;;;;;;;6.47;3.40;;;;;;;;;;4973079;28;20703;-63
2022/04/25 02:32:19;;;;;;;8.20;3.78;;;;;;;;;;4973342;28;20522;-63
2022/04/25 02:34:44;;;;;;;6.68;3.60;;;;;;;;;;4972906;28;20353;-63
2022/04/25 02:37:09;;;;;;;7.55;3.72;;;;;;;;;;4972857;28;20406;-64
2022/04/25 02:39:35;;;;;;;5.88;3.38;;;;;;;;;;4973665;28;20313;-63
2022/04/25 02:42:00;;;;;;;5.85;3.45;;;;;;;;;;4972535;28;20468;-63
2022/04/25 02:44:25;;;;;;;5.13;3.45;;;;;;;;;;4972528;28;20412;-63
2022/04/25 02:46:50;;;;;;;8.10;3.58;;;;;;;;;;4973372;28;20409;-63
2022/04/25 02:49:16;;;;;;;8.30;4.07;;;;;;;;;;4972149;28;20456;-63
2022/04/25 02:51:41;;;;;;;7.82;3.70;;;;;;;;;;4972401;28;20037;-63
2022/04/25 02:54:07;;;;;;;6.63;3.17;;;;;;;;;;4972468;28;20436;-62
2022/04/25 02:56:33;;;;;;;6.85;3.65;;;;;;;;;;4972528;28;20060;-63
2022/04/25 02:58:58;;;;;;;9.43;4.03;;;;;;;;;;4973204;28;20472;-63
2022/04/25 03:01:23;;;;;;;6.15;3.63;;;;;;;;;;4972663;28;20515;-64
2022/04/25 03:03:48;;;;;;;8.00;4.00;;;;;;;;;;4973381;28;20030;-62
2022/04/25 03:06:14;;;;;;;5.45;3.05;;;;;;;;;;4972451;28;20420;-64
2022/04/25 03:08:40;;;;;;;7.70;3.78;;;;;;;;;;4972309;28;20583;-63
2022/04/25 03:11:08;;;;;;;6.50;3.25;;;;;;;;;;4972119;28;20325;-62
2022/04/25 03:13:38;;;;;;;6.17;3.50;;;;;;;;;;4972033;28;20048;-63
2022/04/25 03:16:04;;;;;;;6.57;3.78;;;;;;;;;;4973109;28;20766;-63
2022/04/25 03:18:30;;;;;;;6.05;3.35;;;;;;;;;;4971948;28;20419;-63
2022/04/25 03:20:56;;;;;;;6.03;3.65;;;;;;;;;;4971977;28;20344;-63
2022/04/25 03:23:22;;;;;;;6.35;3.60;;;;;;;;;;4971634;28;20352;-62
2022/04/25 03:25:48;;;;;;;7.10;3.92;;;;;;;;;;4971822;28;20451;-63
2022/04/25 03:28:14;;;;;;;6.85;4.07;;;;;;;;;;4971571;28;20333;-63
2022/04/25 03:30:41;;;;;;;6.15;3.78;;;;;;;;;;4971597;28;20440;-62
2022/04/25 03:33:06;;;;;;;7.68;4.10;;;;;;;;;;4971814;28;20480;-63
2022/04/25 03:35:32;;;;;;;9.15;3.95;;;;;;;;;;4971606;28;20491;-63
2022/04/25 03:37:58;;;;;;;8.30;3.78;;;;;;;;;;4971894;28;20413;-63
2022/04/25 03:40:24;;;;;;;6.68;4.30;;;;;;;;;;4971730;28;20029;-63
2022/04/25 03:42:49;;;;;;;6.43;3.80;;;;;;;;;;4971461;28;20491;-63
2022/04/25 03:45:18;;;;;;;8.18;3.75;;;;;;;;;;4971206;28;20030;-63
2022/04/25 03:47:44;;;;;;;6.50;3.53;;;;;;;;;;4971551;28;20360;-63
2022/04/25 03:50:10;;;;;;;5.97;3.35;;;;;;;;;;4971289;28;20026;-62
2022/04/25 03:52:39;;;;;;;6.00;4.05;;;;;;;;;;4971251;28;20431;-63
2022/04/25 03:57:53;;;;;;;5.70;3.33;;;;;;;;;;4971079;28;20360;-63
2022/04/25 04:00:19;;;;;;;5.40;3.20;;;;;;;;;;4972490;28;20026;-63
2022/04/25 04:02:44;;;;;;;5.25;3.75;;;;;;;;;;4971294;28;20321;-63
2022/04/25 04:05:10;;;;;;;8.05;3.53;;;;;;;;;;4970953;28;20376;-64
2022/04/25 04:07:35;;;;;;;7.97;4.07;;;;;;;;;;4970656;28;20371;-63
2022/04/25 04:10:00;;;;;;;10.93;4.03;;;;;;;;;;4970935;28;20077;-63
2022/04/25 04:12:32;;;;;;;6.18;3.30;;;;;;;;;;4970886;28;20150;-63
2022/04/25 04:15:06;;;;;;;8.30;4.18;;;;;;;;;;4971066;28;20431;-63
2022/04/25 04:17:32;;;;;;;7.95;4.22;;;;;;;;;;4972041;28;20377;-63
2022/04/25 04:19:58;;;;;;;7.18;4.57;;;;;;;;;;4971068;28;20379;-62
2022/04/25 04:22:25;;;;;;;9.10;4.22;;;;;;;;;;4970902;28;20519;-63
2022/04/25 04:24:50;;;;;;;8.10;4.05;;;;;;;;;;4971995;28;20061;-63
2022/04/25 04:27:16;;;;;;;5.70;3.70;;;;;;;;;;4954027;28;20520;-62
2022/04/25 04:29:41;;;;;;;6.55;3.33;;;;;;;;;;4970147;28;20307;-64
2022/04/25 04:32:07;;;;;;;5.03;3.53;;;;;;;;;;4970261;28;20421;-63
2022/04/25 04:34:36;;;;;;;6.30;3.70;;;;;;;;;;4971057;28;20429;-63
2022/04/25 04:37:03;;;;;;;7.63;3.85;;;;;;;;;;4970689;28;20399;-63
2022/04/25 04:39:28;;;;;;;5.07;3.28;;;;;;;;;;4971020;28;20400;-64
2022/04/25 04:41:53;;;;;;;7.50;4.30;;;;;;;;;;4970787;28;20452;-64
2022/04/25 04:44:19;;;;;;;6.72;3.72;;;;;;;;;;4952573;28;20420;-61
2022/04/25 04:46:44;;;;;;;7.05;3.83;;;;;;;;;;4970425;28;20099;-63
2022/04/25 04:49:10;;;;;;;7.20;4.00;;;;;;;;;;4971307;28;20037;-62
2022/04/25 04:51:35;;;;;;;7.35;3.67;;;;;;;;;;4970221;28;20456;-64
2022/04/25 04:54:01;;;;;;;6.40;3.55;;;;;;;;;;4970201;28;20433;-62
2022/04/25 04:56:31;;;;;;;9.93;4.10;;;;;;;;;;4970025;28;20372;-63
2022/04/25 04:58:58;;;;;;;7.00;3.47;;;;;;;;;;4970053;28;20349;-63
2022/04/25 05:01:23;;;;;;;6.35;3.53;;;;;;;;;;4968909;28;20567;-62
2022/04/25 05:03:49;;;;;;;6.55;3.60;;;;;;;;;;4969903;28;20453;-63
2022/04/25 05:06:14;;;;;;;8.55;4.07;;;;;;;;;;4969774;28;20421;-63
2022/04/25 05:08:40;;;;;;;7.57;3.92;;;;;;;;;;4969685;28;20510;-63
2022/04/25 05:11:08;;;;;;;7.75;3.63;;;;;;;;;;4969699;28;20424;-63
2022/04/25 05:13:33;;;;;;;5.70;3.35;;;;;;;;;;4969819;28;20083;-63
2022/04/25 05:15:59;;;;;;;6.30;3.78;;;;;;;;;;4970614;28;20068;-63
2022/04/25 05:18:24;;;;;;;6.40;3.90;;;;;;;;;;4969886;28;20060;-62
2022/04/25 05:20:50;;;;;;;7.78;3.85;;;;;;;;;;4969310;28;20029;-63
2022/04/25 05:23:16;;;;;;;7.03;4.10;;;;;;;;;;4969880;28;20356;-63
2022/04/25 05:25:41;;;;;;;6.30;3.67;;;;;;;;;;4970166;28;20447;-64
2022/04/25 05:28:06;;;;;;;7.20;4.03;;;;;;;;;;4969760;28;20467;-64
2022/04/25 05:30:32;;;;;;;7.85;3.97;;;;;;;;;;4969308;28;20479;-63
2022/04/25 05:32:58;;;;;;;5.78;3.40;;;;;;;;;;4969492;28;20314;-63
2022/04/25 05:35:26;;;;;;;7.15;4.13;;;;;;;;;;4969297;28;20059;-63
2022/04/25 05:37:51;;;;;;;6.85;3.42;;;;;;;;;;4969417;28;20479;-63
2022/04/25 05:40:17;;;;;;;6.68;3.75;;;;;;;;;;4970908;28;20503;-62
2022/04/25 05:42:44;;;;;;;6.88;3.97;;;;;;;;;;4951755;28;20449;-62
2022/04/25 05:45:10;;;;;;;6.65;3.75;;;;;;;;;;4969579;28;20437;-63
2022/04/25 05:47:36;;;;;;;10.55;4.82;;;;;;;;;;4969296;28;20456;-63
2022/04/25 05:52:48;;;;;;;6.88;3.35;;;;;;;;;;4968728;28;20099;-63
2022/04/25 05:55:13;;;;;;;5.70;3.58;;;;;;;;;;4951761;28;20429;-63
2022/04/25 05:57:40;;;;;;;4.75;3.25;;;;;;;;;;4969177;28;20429;-63
2022/04/25 06:00:07;;;;;;;6.63;3.83;;;;;;;;;;4969881;28;20369;-64
2022/04/25 06:02:36;;;;;;;4.93;3.63;;;;;;;;;;4969697;28;20025;-64
2022/04/25 06:05:02;;;;;;;7.13;3.42;;;;;;;;;;4970940;28;20440;-64
2022/04/25 06:07:27;;;;;;;7.43;4.50;;;;;;;;;;4968792;28;20472;-64
2022/04/25 06:09:53;;;;;;;7.45;4.05;;;;;;;;;;4968744;28;20519;-63
2022/04/25 06:12:18;;;;;;;6.80;3.33;;;;;;;;;;4951239;28;20413;-63
2022/04/25 06:14:44;;;;;;;7.57;4.15;;;;;;;;;;4971362;28;20540;-63
2022/04/25 06:17:13;;;;;;;6.00;3.65;;;;;;;;;;4969273;28;20425;-63
2022/04/25 06:19:39;;;;;;;4.78;3.35;;;;;;;;;;4969942;28;20498;-63
2022/04/25 06:22:04;;;;;;;7.90;3.92;;;;;;;;;;4969711;28;20384;-63
2022/04/25 06:24:29;;;;;;;7.10;4.22;;;;;;;;;;4968547;28;20033;-62
2022/04/25 06:26:55;;;;;;;9.32;4.22;;;;;;;;;;4969448;28;20468;-62
2022/04/25 06:29:21;;;;;;;7.30;4.35;;;;;;;;;;4969666;28;20451;-63
2022/04/25 06:31:46;;;;;;;7.72;3.90;;;;;;;;;;4969614;28;20348;-63
2022/04/25 06:34:12;;;;;;;6.90;3.58;;;;;;;;;;4969651;28;20108;-63
2022/04/25 06:36:37;;;;;;;5.95;3.65;;;;;;;;;;4968936;28;20306;-63
2022/04/25 06:39:03;;;;;;;6.95;3.60;;;;;;;;;;4970165;28;20478;-63
2022/04/25 06:41:28;;;;;;;7.40;3.95;;;;;;;;;;4968890;28;20425;-63
2022/04/25 06:43:54;;;;;;;7.28;3.92;;;;;;;;;;4968990;28;20025;-63
2022/04/25 06:46:19;;;;;;;7.35;3.90;;;;;;;;;;4968513;28;20391;-64
2022/04/25 06:49:19;;;;;;;5.95;3.78;;;;;;;;;;4969057;28;20093;-64
2022/04/25 06:51:30;;;;;;;8.60;4.22;;;;;;;;;;4968473;28;20464;-62
2022/04/25 06:53:56;;;;;;;6.03;3.90;;;;;;;;;;4968713;28;20423;-63
2022/04/25 06:56:21;;;;;;;6.95;4.32;;;;;;;;;;4970002;28;20518;-62
2022/04/25 06:58:47;;;;;;;8.23;3.88;;;;;;;;;;4969633;28;20458;-62
2022/04/25 07:01:12;;;;;;;7.55;3.65;;;;;;;;;;4968785;28;20022;-63
2022/04/25 07:03:37;;;;;;;5.75;3.70;;;;;;;;;;4971758;28;20409;-62
2022/04/25 07:06:03;;;;;;;8.45;3.58;;;;;;;;;;4972393;28;20030;-63
2022/04/25 07:08:28;;;;;;;7.00;3.67;;;;;;;;;;4971983;28;20495;-64
2022/04/25 07:10:53;;;;;;;7.13;4.07;;;;;;;;;;4972052;28;20381;-62
2022/04/25 07:13:19;;;;;;;8.13;3.75;;;;;;;;;;4972424;28;20415;-63
2022/04/25 07:15:44;;;;;;;9.15;4.20;;;;;;;;;;4973044;28;20417;-63
2022/04/25 07:18:09;;;;;;;9.30;3.78;;;;;;;;;;4972094;28;20044;-62
2022/04/25 07:20:35;;;;;;;9.95;4.32;;;;;;;;;;4971876;28;20376;-64
2022/04/25 07:31:13;;;;;;;9.38;3.85;;;;;;;;;;4971684;28;20507;-63
2022/04/25 07:33:43;;;;;;;8.80;3.85;;;;;;;;;;4971480;28;20354;-62
2022/04/25 07:36:12;;;;;;;9.65;4.30;;;;;;;;;;4971803;28;20456;-64
2022/04/25 07:38:39;;;;;;;;;;;;;;;;;;4971930;28;20429;-63
2022/04/25 07:41:04;;;;;;;7.30;3.75;;;;;;;;;;4971627;28;20314;-64
2022/04/25 07:43:30;;;;;;;6.55;3.53;;;;;;;;;;4971206;28;20079;-63
2022/04/25 07:45:55;;;;;;;7.78;3.65;;;;;;;;;;4973030;28;20421;-62
2022/04/25 07:48:21;;;;;;;8.40;3.67;;;;;;;;;;4971924;28;20345;-64
2022/04/25 07:50:47;;;;;;;9.77;3.90;;;;;;;;;;4971357;28;20349;-64
2022/04/25 07:53:13;;;;;;;6.60;4.00;;;;;;;;;;4972296;28;20030;-64
2022/04/25 07:55:38;;;;;;;6.65;3.47;;;;;;;;;;4971240;28;20460;-63
2022/04/25 07:58:04;;;;;;;12.57;4.97;;;;;;;;;;4971387;28;20429;-63
2022/04/25 08:00:29;;;;;;;6.57;3.80;;;;;;;;;;4971276;28;20349;-64
2022/04/25 08:02:54;;;;;;;10.85;3.72;;;;;;;;;;4971027;28;20471;-63
2022/04/25 08:05:20;;;;;;;9.30;4.07;;;;;;;;;;4972550;28;20049;-65
2022/04/25 08:07:45;;;;;;;8.50;3.15;;;;;;;;;;4970740;28;20104;-64
2022/04/25 08:10:10;;;;;;;6.05;3.30;;;;;;;;;;4970778;28;20419;-63
2022/04/25 08:18:07;;;;;;;7.50;3.58;;;;;;;;;;4972808;28;20356;-63
2022/04/25 08:20:34;;;;;;;8.43;3.20;;;;;;;;;;4971082;28;20021;-63
2022/04/25 08:23:01;;;;;;;6.28;3.35;;;;;;;;;;4970872;28;20460;-63
2022/04/25 08:25:28;;;;;;;8.18;3.95;;;;;;;;;;4971045;28;20360;-63
2022/04/25 08:27:53;;;;;;;7.43;3.72;;;;;;;;;;4970537;28;20021;-63
2022/04/25 08:30:20;;;;;;;6.88;3.10;;;;;;;;;;4970896;28;20116;-64
2022/04/25 08:32:46;;;;;;;6.50;3.17;;;;;;;;;;4970885;28;20464;-63
2022/04/25 08:35:13;;;;;;;6.35;3.42;;;;;;;;;;4970798;28;20351;-63
2022/04/25 08:37:39;;;;;;;6.95;3.40;;;;;;;;;;4971384;28;20388;-63
2022/04/25 08:40:05;;;;;;;5.88;3.40;;;;;;;;;;4970573;28;20403;-63
2022/04/25 08:42:31;;;;;;;7.38;4.32;;;;;;;;;;4971572;28;20493;-64
2022/04/25 08:44:57;;;;;;;7.78;4.22;;;;;;;;;;4970048;28;20500;-63
2022/04/25 08:47:26;;;;;;;7.40;3.45;;;;;;;;;;4970978;28;20047;-63
2022/04/25 08:49:52;;;;;;;7.78;3.90;;;;;;;;;;4952898;28;20341;-64
2022/04/25 08:52:17;;;;;;;7.22;3.45;;;;;;;;;;4970831;28;20355;-63
2022/04/25 08:54:43;;;;;;;7.80;3.33;;;;;;;;;;4970206;28;20368;-63
2022/04/25 08:57:09;;;;;;;6.82;3.67;;;;;;;;;;4952649;28;20425;-63
2022/04/25 08:59:34;;;;;;;7.63;3.60;;;;;;;;;;4952423;28;20096;-63
2022/04/25 09:02:00;;;;;;;5.20;3.05;;;;;;;;;;4952570;28;20317;-64
2022/04/25 09:04:26;;;;;;;6.97;3.20;;;;;;;;;;4971064;28;20423;-63
2022/04/25 09:06:51;;;;;;;6.35;3.50;;;;;;;;;;4970291;28;20447;-63
2022/04/25 09:09:17;;;;;;;6.70;3.10;;;;;;;;;;4969649;28;20072;-63
2022/04/25 09:14:30;;;;;;;6.50;3.25;;;;;;;;;;4968036;28;20455;-64
2022/04/25 09:16:56;;;;;;;6.43;2.70;;;;;;;;;;4970106;28;20449;-63
2022/04/25 09:19:21;;;;;;;5.32;3.03;;;;;;;;;;4971024;28;20352;-63
2022/04/25 09:21:47;;;;;;;6.55;3.28;;;;;;;;;;4952253;28;20337;-63
2022/04/25 09:24:30;;;;;;;5.55;3.00;;;;;;;;;;4969876;28;20302;-64
2022/04/25 09:27:07;;;;;;;5.90;2.72;;;;;;;;;;4969219;28;20055;-64
2022/04/25 09:29:34;;;;;;;6.53;3.22;;;;;;;;;;4969653;28;20385;-63
2022/04/25 09:31:59;;;;;;;6.63;3.13;;;;;;;;;;4969283;28;20483;-63
2022/04/25 09:37:09;;;;;;;6.63;3.30;;;;;;;;;;4970782;28;20130;-64
2022/04/25 09:39:35;;;;;;;4.15;2.50;;;;;;;;;;4971244;28;20442;-63
2022/04/25 09:42:00;;;;;;;7.07;2.55;;;;;;;;;;4969195;28;20367;-63
2022/04/25 09:44:30;;;;;;;4.95;2.90;;;;;;;;;;4951525;28;20065;-63
2022/04/25 09:46:56;;;;;;;4.85;2.85;;;;;;;;;;4951516;28;20424;-63
2022/04/25 09:49:21;;;;;;;4.95;2.83;;;;;;;;;;4969461;28;20302;-64
2022/04/25 09:52:02;;;;;;;5.70;2.80;;;;;;;;;;4969070;28;20051;-63
2022/04/25 09:54:28;;;;;;;4.32;2.20;;;;;;;;;;4969405;28;20441;-63
2022/04/25 09:56:53;;;;;;;5.65;2.70;;;;;;;;;;4969848;28;20499;-63
2022/04/25 09:59:21;;;;;;;6.63;2.80;;;;;;;;;;4969486;28;20433;-63
2022/04/25 10:02:00;;;;;;;5.38;2.63;;;;;;;;;;4969168;28;20558;-63
2022/04/25 10:04:31;;;;;;;5.47;2.92;;;;;;;;;;4970155;28;20356;-63
2022/04/25 10:06:59;;;;;;;8.48;3.08;;;;;;;;;;4968960;28;20388;-63
2022/04/25 10:09:28;;;;;;;6.93;2.70;;;;;;;;;;4969419;28;20444;-63
2022/04/25 10:11:57;;;;;;;5.38;2.40;;;;;;;;;;4950895;28;20368;-63
2022/04/25 10:14:22;;;;;;;6.20;2.22;;;;;;;;;;4969068;28;20466;-63
2022/04/25 10:16:48;;;;;;;3.47;2.20;;;;;;;;;;4951431;28;20429;-64
2022/04/25 10:19:13;;;;;;;4.28;1.90;;;;;;;;;;4951274;28;20411;-64
2022/04/25 10:21:39;;;;;;;5.68;2.90;;;;;;;;;;4951303;28;20348;-63
2022/04/25 10:24:05;;;;;;;5.55;2.78;;;;;;;;;;4951611;28;20595;-63
2022/04/25 10:26:31;;;;;;;4.93;2.50;;;;;;;;;;4951001;28;20441;-63
2022/04/25 10:28:59;;;;;;;4.20;2.53;;;;;;;;;;4952162;28;20336;-62
2022/04/25 10:31:26;;;;;;;6.32;2.45;;;;;;;;;;4969069;28;20428;-63
2022/04/25 10:33:58;;;;;;;4.15;2.42;;;;;;;;;;4951550;28;20528;-64
2022/04/25 10:36:36;;;;;;;3.83;2.53;;;;;;;;;;4969491;28;20376;-63
2022/04/25 10:39:20;;;;;;;4.28;2.22;;;;;;;;;;4970602;28;20334;-63
2022/04/25 10:44:44;;;;;;;5.20;2.55;;;;;;;;;;4972601;28;20492;-64
2022/04/25 10:47:17;;;;;;;3.17;2.22;;;;;;;;;;4972725;28;20337;-63
2022/04/25 10:49:46;;;;;;;5.32;2.65;;;;;;;;;;4972815;28;20413;-64
2022/04/25 10:52:43;;;;;;;3.60;2.15;;;;;;;;;;4972429;28;20056;-62
2022/04/25 10:55:32;;;;;;;8.27;2.50;;;;;;;;;;4972731;28;20445;-63
2022/04/25 10:58:03;;;;;;;5.15;2.30;;;;;;;;;;4972681;28;20364;-63
2022/04/25 11:00:41;;;;;;;3.72;2.10;;;;;;;;;;4972239;28;20318;-64
2022/04/25 11:03:14;;;;;;;4.32;2.40;;;;;;;;;;4972220;28;20049;-63
2022/04/25 11:05:39;;;;;;;5.32;2.70;;;;;;;;;;4972855;28;20456;-63
2022/04/25 11:08:19;;;;;;;3.10;1.98;;;;;;;;;;4971805;28;20338;-63
2022/04/25 11:11:12;;;;;;;3.47;2.17;;;;;;;;;;4971997;28;20083;-62
2022/04/25 11:13:49;;;;;;;5.45;2.60;;;;;;;;;;4972991;28;20352;-63
2022/04/25 11:16:23;;;;;;;3.70;2.53;;;;;;;;;;4972138;28;20427;-64
2022/04/25 11:19:08;;;;;;;3.80;2.17;;;;;;;;;;4972564;28;20455;-64
2022/04/25 11:21:33;;;;;;;3.97;2.30;;;;;;;;;;4972366;28;20364;-65
2022/04/25 11:24:01;;;;;;;3.25;2.03;;;;;;;;;;4972278;28;20394;-63
2022/04/25 11:26:26;;;;;;;4.53;2.17;;;;;;;;;;4971678;28;20571;-64
2022/04/25 11:29:07;;;;;;;3.65;2.00;;;;;;;;;;4971899;28;20515;-64
2022/04/25 11:31:34;;;;;;;4.15;2.35;;;;;;;;;;4973316;28;20472;-64
2022/04/25 11:34:04;;;;;;;3.45;2.40;;;;;;;;;;4971831;28;20397;-65
2022/04/25 11:36:31;;;;;;;4.35;2.25;;;;;;;;;;4971835;28;20303;-64
2022/04/25 11:41:42;;;;;;;3.22;1.75;;;;;;;;;;4974018;28;20390;-64
2022/04/25 11:44:08;;;;;;;4.88;3.13;;;;;;;;;;4971704;28;20341;-64
2022/04/25 11:46:35;;;;;;;5.65;2.88;;;;;;;;;;4971583;28;20025;-64
2022/04/25 11:49:01;;;;;;;5.22;2.75;;;;;;;;;;4971184;28;20030;-64
2022/04/25 11:51:33;;;;;;;2.72;2.17;;;;;;;;;;4953935;28;20087;-64
2022/04/25 11:54:01;;;;;;;6.57;2.50;;;;;;;;;;4971761;28;20383;-64
2022/04/25 11:56:27;;;;;;;3.28;2.00;;;;;;;;;;4971681;28;20025;-63
2022/04/25 11:58:53;;;;;;;5.55;2.70;;;;;;;;;;4971730;28;20354;-64
2022/04/25 12:01:37;;;;;;;4.25;2.50;;;;;;;;;;4973298;28;20290;-63
2022/04/25 12:04:21;;;;;;;5.72;2.70;;;;;;;;;;4971037;28;20384;-64
2022/04/25 12:06:52;;;;;;;4.30;2.63;;;;;;;;;;4971391;28;20437;-64
2022/04/25 12:17:52;;;;;;;4.53;2.85;;;;;;;;;;4971538;28;20416;-63
2022/04/25 12:20:19;;;;;;;5.00;2.85;;;;;;;;;;4970656;28;20494;-63
2022/04/25 12:23:00;;;;;;;4.57;2.53;;;;;;;;;;4971024;28;20469;-63
2022/04/25 12:25:28;;;;;;;5.60;2.88;;;;;;;;;;4953203;28;20463;-63
2022/04/25 12:28:04;;;;;;;5.55;2.78;;;;;;;;;;4971161;28;20456;-64
2022/04/25 12:30:32;;;;;;;5.97;2.97;;;;;;;;;;4970734;28;20464;-63
2022/04/25 12:33:12;;;;;;;6.43;3.03;;;;;;;;;;4953290;28;20440;-63
2022/04/25 12:35:38;;;;;;;4.50;2.47;;;;;;;;;;4970599;28;20021;-64
2022/04/25 12:38:04;;;;;;;4.97;2.63;;;;;;;;;;4970862;28;20029;-63
2022/04/25 12:40:30;;;;;;;6.85;2.88;;;;;;;;;;4952684;28;20487;-63
2022/04/25 12:42:56;;;;;;;6.90;3.10;;;;;;;;;;4971009;28;20439;-63
2022/04/25 12:45:22;;;;;;;5.35;3.00;;;;;;;;;;4970456;28;20429;-63
2022/04/25 12:47:58;;;;;;;6.25;2.78;;;;;;;;;;4970330;28;20048;-63
2022/04/25 12:50:40;;;;;;;4.45;2.10;;;;;;;;;;4970637;28;20322;-63
2022/04/25 12:53:06;;;;;;;4.15;2.50;;;;;;;;;;4970889;28;20383;-63
2022/04/25 12:55:48;;;;;;;3.63;1.98;;;;;;;;;;4970269;28;20414;-64
2022/04/25 12:58:16;;;;;;;4.35;2.42;;;;;;;;;;4969985;28;20388;-64
2022/04/25 13:00:47;;;;;;;4.88;2.97;;;;;;;;;;4969864;28;20444;-63
2022/04/25 13:03:13;;;;;;;4.55;2.50;;;;;;;;;;4969914;28;20380;-63
2022/04/25 13:05:39;;;;;;;4.03;2.50;;;;;;;;;;4970229;28;20395;-63
2022/04/25 13:08:04;;;;;;;5.22;2.90;;;;;;;;;;4970650;28;20391;-63
2022/04/25 13:10:30;;;;;;;4.70;2.40;;;;;;;;;;4969992;28;20444;-63
2022/04/25 13:12:56;;;;;;;5.22;2.50;;;;;;;;;;4970569;28;20324;-62
2022/04/25 13:15:26;;;;;;;3.83;2.35;;;;;;;;;;4969604;28;20429;-63
2022/04/25 13:17:51;;;;;;;4.05;2.25;;;;;;;;;;4970313;28;20488;-62
2022/04/25 13:20:22;;;;;;;6.65;2.20;;;;;;;;;;4969693;28;20459;-63
2022/04/25 13:22:49;;;;;;;4.38;2.30;;;;;;;;;;4969772;28;20021;-63
2022/04/25 13:25:16;;;;;;;4.72;2.78;;;;;;;;;;4969579;28;20468;-63
2022/04/25 13:27:42;;;;;;;3.40;1.98;;;;;;;;;;4969491;28;20022;-64
2022/04/25 13:30:09;;;;;;;5.80;2.15;;;;;;;;;;4969884;28;20509;-63
2022/04/25 13:32:35;;;;;;;3.53;2.20;;;;;;;;;;4971105;28;20364;-63
2022/04/25 13:35:01;;;;;;;3.40;2.38;;;;;;;;;;4969231;28;20468;-63
2022/04/25 13:37:29;;;;;;;4.35;2.53;;;;;;;;;;4970966;28;20500;-63
2022/04/25 13:39:55;;;;;;;2.63;1.98;;;;;;;;;;4970337;28;20383;-62
2022/04/25 13:42:20;;;;;;;4.35;2.17;;;;;;;;;;4969418;28;20380;-62
2022/04/25 13:44:45;;;;;;;6.28;2.20;;;;;;;;;;4969641;28;20411;-63
2022/04/25 13:47:11;;;;;;;3.55;2.00;;;;;;;;;;4970496;28;20318;-63
2022/04/25 13:49:37;;;;;;;3.30;2.00;;;;;;;;;;4969489;28;20355;-63
2022/04/25 13:52:03;;;;;;;3.38;2.20;;;;;;;;;;4970022;28;20499;-62
2022/04/25 13:54:28;;;;;;;5.82;2.20;;;;;;;;;;4969739;28;20453;-63
2022/04/25 13:56:55;;;;;;;4.13;2.55;;;;;;;;;;4969373;28;20396;-64
2022/04/25 13:59:21;;;;;;;3.67;2.13;;;;;;;;;;4969148;28;20333;-63
2022/04/25 14:01:46;;;;;;;3.13;1.90;;;;;;;;;;4969380;28;20092;-63
2022/04/25 14:04:11;;;;;;;4.47;2.08;;;;;;;;;;4969276;28;20456;-63
2022/04/25 14:06:37;;;;;;;4.20;1.90;;;;;;;;;;4969243;28;20340;-63
2022/04/25 14:09:02;;;;;;;3.78;2.42;;;;;;;;;;4968330;28;20460;-64
2022/04/25 14:11:29;;;;;;;4.55;2.35;;;;;;;;;;4970344;28;20180;-63
2022/04/25 14:13:58;;;;;;;3.83;1.80;;;;;;;;;;4974588;28;20349;-62
2022/04/25 14:16:24;;;;;;;3.85;2.10;;;;;;;;;;4975389;28;20052;-63
2022/04/25 14:18:49;;;;;;;4.15;2.45;;;;;;;;;;4975892;28;20425;-63
2022/04/25 14:21:15;;;;;;;4.72;2.42;;;;;;;;;;4975419;28;20041;-63
2022/04/25 14:23:40;;;;;;;3.10;2.10;;;;;;;;;;4976419;28;20295;-63
2022/04/25 14:26:06;;;;;;;4.03;2.10;;;;;;;;;;4974536;28;20372;-63
2022/04/25 14:28:33;;;;;;;4.63;2.33;;;;;;;;;;4975895;28;20426;-63
2022/04/25 14:30:58;;;;;;;3.40;1.95;;;;;;;;;;4975203;28;20445;-64
2022/04/25 14:33:24;;;;;;;3.65;2.33;;;;;;;;;;4974376;28;20459;-64
2022/04/25 14:35:49;;;;;;;2.72;2.10;;;;;;;;;;4975684;28;20357;-63
2022/04/25 14:38:18;;;;;;;4.30;2.40;;;;;;;;;;4975784;28;20037;-64
2022/04/25 14:40:43;;;;;;;3.17;2.22;;;;;;;;;;4975835;28;20456;-64
2022/04/25 14:43:09;;;;;;;4.28;2.78;;;;;;;;;;4977259;28;20409;-64
2022/04/25 14:45:34;;;;;;;3.63;2.08;;;;;;;;;;4975310;28;20417;-63
2022/04/25 14:48:00;;;;;;;2.85;2.28;;;;;;;;;;4975443;28;20516;-64
2022/04/25 14:55:53;;;;;;;4.00;2.70;;;;;;;;;;4975481;28;20379;-63
2022/04/25 14:58:18;;;;;;;4.65;2.63;;;;;;;;;;4975262;28;20413;-63
2022/04/25 15:00:45;;;;;;;3.53;2.30;;;;;;;;;;4975764;28;20033;-64
2022/04/25 15:03:11;;;;;;;3.80;2.35;;;;;;;;;;4975453;28;20388;-63
2022/04/25 15:05:38;;;;;;;4.05;2.20;;;;;;;;;;4975738;28;20455;-63
2022/04/25 15:08:03;;;;;;;3.10;2.28;;;;;;;;;;4974359;28;20072;-63
2022/04/25 15:10:29;;;;;;;4.82;2.50;;;;;;;;;;4975026;28;20017;-64
2022/04/25 15:12:54;;;;;;;4.50;2.38;;;;;;;;;;4975435;28;20411;-62
2022/04/25 15:15:19;;;;;;;4.28;2.30;;;;;;;;;;4975140;28;20322;-63
2022/04/25 15:17:47;;;;;;;4.07;2.45;;;;;;;;;;4975370;28;20507;-63
2022/04/25 15:20:12;;;;;;;4.38;2.75;;;;;;;;;;4975685;28;20421;-63
2022/04/25 15:22:38;;;;;;;4.53;2.30;;;;;;;;;;4975232;28;20363;-63
2022/04/25 15:25:03;;;;;;;3.65;2.45;;;;;;;;;;4972292;28;20367;-64
2022/04/25 15:27:29;;;;;;;4.75;2.55;;;;;;;;;;4972367;28;20570;-64
2022/04/25 15:29:54;;;;;;;4.82;2.67;;;;;;;;;;4954208;28;20349;-63
2022/04/25 15:32:20;;;;;;;3.83;2.50;;;;;;;;;;4971846;28;20033;-64